PRIVATE WETTERSTATION BILLIGHEIM-ALLFELD                       ZURCK
Wetterdaten: Montag, 11.04.2016
Datum Zeit Temp. A. Temp. A. min Temp. A. max Feuchte A. Luftdruck Regen Wind Richtung Richtung Sonnenschein ET Solar Taupunkt Windchill Windben Empfang
11.04.2016 00:00 9,4 C 9,4 C 9,5 C 74 % 1011,2 hPa 0,0 l/m 1,6 km/h (1 Bft) NO 45 0 min 0,025 mm 0 W/m 5,0 C 9,4 C 6,4 km/h (2 Bft) 100 %
11.04.2016 00:10 9,3 C 9,3 C 9,4 C 74 % 1011,1 hPa 0,0 l/m 1,6 km/h (1 Bft) O-NO 67 0 min 0,000 mm 0 W/m 4,9 C 9,3 C 6,4 km/h (2 Bft) 80 %
11.04.2016 00:20 9,3 C 9,3 C 9,3 C 75 % 1011,1 hPa 0,0 l/m 3,2 km/h (1 Bft) NO 45 0 min 0,000 mm 0 W/m 5,1 C 9,3 C 9,7 km/h (2 Bft) 100 %
11.04.2016 00:30 9,1 C 9,1 C 9,3 C 76 % 1011,1 hPa 0,0 l/m 1,6 km/h (1 Bft) NO 45 0 min 0,000 mm 0 W/m 5,1 C 9,1 C 8,0 km/h (2 Bft) 100 %
11.04.2016 00:40 8,8 C 8,8 C 9,1 C 76 % 1011,3 hPa 0,0 l/m 1,6 km/h (1 Bft) NO 45 0 min 0,000 mm 0 W/m 4,8 C 8,8 C 6,4 km/h (2 Bft) 100 %
11.04.2016 00:50 8,6 C 8,6 C 8,8 C 76 % 1011,5 hPa 0,0 l/m 1,6 km/h (1 Bft) NO 45 0 min 0,000 mm 0 W/m 4,6 C 8,6 C 16,1 km/h (3 Bft) 100 %
11.04.2016 01:00 8,5 C 8,5 C 8,6 C 77 % 1011,5 hPa 0,0 l/m 1,6 km/h (1 Bft) NO 45 0 min 0,025 mm 0 W/m 4,7 C 8,5 C 9,7 km/h (2 Bft) 100 %
11.04.2016 01:10 8,3 C 8,3 C 8,5 C 78 % 1011,5 hPa 0,0 l/m 3,2 km/h (1 Bft) NO 45 0 min 0,000 mm 0 W/m 4,7 C 8,3 C 8,0 km/h (2 Bft) 100 %
11.04.2016 01:20 8,1 C 8,1 C 8,3 C 78 % 1011,6 hPa 0,0 l/m 1,6 km/h (1 Bft) NO 45 0 min 0,000 mm 0 W/m 4,5 C 8,1 C 14,5 km/h (3 Bft) 100 %
11.04.2016 01:30 8,0 C 8,0 C 8,1 C 79 % 1011,6 hPa 0,0 l/m 0,0 km/h (0 Bft) NO 45 0 min 0,000 mm 0 W/m 4,6 C 8,0 C 6,4 km/h (2 Bft) 100 %
11.04.2016 01:40 7,9 C 7,9 C 8,0 C 79 % 1011,6 hPa 0,0 l/m 1,6 km/h (1 Bft) NO 45 0 min 0,000 mm 0 W/m 4,5 C 7,9 C 8,0 km/h (2 Bft) 100 %
11.04.2016 01:50 7,8 C 7,8 C 7,9 C 79 % 1011,6 hPa 0,0 l/m 1,6 km/h (1 Bft) O-NO 67 0 min 0,000 mm 0 W/m 4,4 C 7,8 C 8,0 km/h (2 Bft) 100 %
11.04.2016 02:00 7,7 C 7,7 C 7,8 C 79 % 1011,7 hPa 0,0 l/m 1,6 km/h (1 Bft) NO 45 0 min 0,025 mm 0 W/m 4,3 C 7,7 C 6,4 km/h (2 Bft) 100 %
11.04.2016 02:10 7,6 C 7,6 C 7,7 C 80 % 1011,8 hPa 0,0 l/m 0,0 km/h (0 Bft) O-NO 67 0 min 0,000 mm 0 W/m 4,4 C 7,6 C 11,3 km/h (2 Bft) 100 %
11.04.2016 02:20 7,5 C 7,5 C 7,6 C 80 % 1011,8 hPa 0,0 l/m 1,6 km/h (1 Bft) O-NO 67 0 min 0,000 mm 0 W/m 4,3 C 7,5 C 16,1 km/h (3 Bft) 100 %
11.04.2016 02:30 7,3 C 7,3 C 7,5 C 80 % 1011,9 hPa 0,0 l/m 0,0 km/h (0 Bft) N-NO 22 0 min 0,000 mm 0 W/m 4,1 C 7,3 C 4,8 km/h (1 Bft) 100 %
11.04.2016 02:40 7,1 C 7,1 C 7,3 C 81 % 1011,9 hPa 0,0 l/m 0,0 km/h (0 Bft) NO 45 0 min 0,000 mm 0 W/m 4,1 C 7,1 C 6,4 km/h (2 Bft) 100 %
11.04.2016 02:50 6,8 C 6,8 C 7,1 C 82 % 1011,9 hPa 0,0 l/m 1,6 km/h (1 Bft) N-NO 22 0 min 0,000 mm 0 W/m 3,9 C 6,8 C 9,7 km/h (2 Bft) 100 %
11.04.2016 03:00 6,6 C 6,6 C 6,8 C 83 % 1011,8 hPa 0,0 l/m 0,0 km/h (0 Bft) N 360 0 min 0,025 mm 0 W/m 3,9 C 6,6 C 8,0 km/h (2 Bft) 100 %
11.04.2016 03:10 6,4 C 6,4 C 6,6 C 83 % 1011,9 hPa 0,0 l/m 0,0 km/h (0 Bft) NO 45 0 min 0,000 mm 0 W/m 3,7 C 6,4 C 6,4 km/h (2 Bft) 100 %
11.04.2016 03:20 6,2 C 6,2 C 6,4 C 83 % 1012,0 hPa 0,0 l/m 0,0 km/h (0 Bft) N 0 0 min 0,000 mm 0 W/m 3,5 C 6,2 C 0,0 km/h (0 Bft) 100 %
11.04.2016 03:30 5,9 C 5,9 C 6,2 C 84 % 1012,0 hPa 0,0 l/m 0,0 km/h (0 Bft) N 0 0 min 0,000 mm 0 W/m 3,4 C 5,9 C 0,0 km/h (0 Bft) 100 %
11.04.2016 03:40 5,6 C 5,6 C 5,9 C 85 % 1012,0 hPa 0,0 l/m 0,0 km/h (0 Bft) N 0 0 min 0,000 mm 0 W/m 3,3 C 5,6 C 0,0 km/h (0 Bft) 100 %
11.04.2016 03:50 5,3 C 5,3 C 5,5 C 86 % 1012,0 hPa 0,0 l/m 0,0 km/h (0 Bft) N 0 0 min 0,000 mm 0 W/m 3,2 C 5,3 C 0,0 km/h (0 Bft) 100 %
11.04.2016 04:00 5,2 C 5,2 C 5,3 C 87 % 1012,0 hPa 0,0 l/m 0,0 km/h (0 Bft) NO 45 0 min 0,000 mm 0 W/m 3,2 C 5,2 C 1,6 km/h (1 Bft) 100 %
11.04.2016 04:10 5,1 C 5,1 C 5,2 C 87 % 1012,1 hPa 0,0 l/m 0,0 km/h (0 Bft) NO 45 0 min 0,000 mm 0 W/m 3,1 C 5,1 C 4,8 km/h (1 Bft) 100 %
11.04.2016 04:20 5,0 C 5,0 C 5,1 C 87 % 1012,0 hPa 0,0 l/m 0,0 km/h (0 Bft) N 0 0 min 0,000 mm 0 W/m 3,0 C 5,0 C 0,0 km/h (0 Bft) 100 %
11.04.2016 04:30 4,8 C 4,8 C 5,0 C 87 % 1012,0 hPa 0,0 l/m 0,0 km/h (0 Bft) N 0 0 min 0,000 mm 0 W/m 2,8 C 4,8 C 0,0 km/h (0 Bft) 100 %
11.04.2016 04:40 4,8 C 4,8 C 4,9 C 88 % 1012,0 hPa 0,0 l/m 0,0 km/h (0 Bft) NO 45 0 min 0,000 mm 0 W/m 3,0 C 4,8 C 3,2 km/h (1 Bft) 100 %
11.04.2016 04:50 4,7 C 4,7 C 4,8 C 88 % 1011,9 hPa 0,0 l/m 0,0 km/h (0 Bft) N 0 0 min 0,000 mm 0 W/m 2,9 C 4,7 C 0,0 km/h (0 Bft) 100 %
11.04.2016 05:00 4,6 C 4,6 C 4,7 C 88 % 1011,9 hPa 0,0 l/m 0,0 km/h (0 Bft) N-NO 22 0 min 0,000 mm 0 W/m 2,8 C 4,6 C 1,6 km/h (1 Bft) 100 %
11.04.2016 05:10 4,5 C 4,4 C 4,6 C 89 % 1012,1 hPa 0,0 l/m 0,0 km/h (0 Bft) N-NO 22 0 min 0,000 mm 0 W/m 2,8 C 4,5 C 3,2 km/h (1 Bft) 100 %
11.04.2016 05:20 4,4 C 4,4 C 4,5 C 88 % 1012,1 hPa 0,0 l/m 0,0 km/h (0 Bft) N 0 0 min 0,000 mm 0 W/m 2,6 C 4,4 C 0,0 km/h (0 Bft) 100 %
11.04.2016 05:30 4,2 C 4,2 C 4,4 C 88 % 1012,2 hPa 0,0 l/m 0,0 km/h (0 Bft) N 0 0 min 0,000 mm 0 W/m 2,4 C 4,2 C 0,0 km/h (0 Bft) 100 %
11.04.2016 05:40 4,1 C 4,1 C 4,2 C 89 % 1012,1 hPa 0,0 l/m 0,0 km/h (0 Bft) N-NO 22 0 min 0,000 mm 0 W/m 2,5 C 4,1 C 1,6 km/h (1 Bft) 100 %
11.04.2016 05:50 4,0 C 4,0 C 4,1 C 89 % 1012,1 hPa 0,0 l/m 0,0 km/h (0 Bft) N 0 0 min 0,000 mm 0 W/m 2,4 C 4,0 C 0,0 km/h (0 Bft) 100 %
11.04.2016 06:00 3,9 C 3,9 C 4,0 C 89 % 1012,1 hPa 0,0 l/m 0,0 km/h (0 Bft) N 0 0 min 0,000 mm 0 W/m 2,3 C 3,9 C 0,0 km/h (0 Bft) 100 %
11.04.2016 06:10 3,8 C 3,8 C 3,9 C 89 % 1012,1 hPa 0,0 l/m 0,0 km/h (0 Bft) N-NO 22 0 min 0,000 mm 0 W/m 2,2 C 3,8 C 1,6 km/h (1 Bft) 91 %
11.04.2016 06:20 3,7 C 3,7 C 3,8 C 90 % 1012,2 hPa 0,0 l/m 1,6 km/h (1 Bft) N-NO 22 0 min 0,000 mm 0 W/m 2,2 C 3,7 C 4,8 km/h (1 Bft) 100 %
11.04.2016 06:30 3,6 C 3,6 C 3,7 C 90 % 1012,3 hPa 0,0 l/m 1,6 km/h (1 Bft) NW 315 0 min 0,000 mm 0 W/m 2,1 C 3,6 C 6,4 km/h (2 Bft) 99 %
11.04.2016 06:40 3,4 C 3,4 C 3,6 C 90 % 1012,3 hPa 0,0 l/m 0,0 km/h (0 Bft) NW 315 0 min 0,000 mm 0 W/m 1,9 C 3,4 C 3,2 km/h (1 Bft) 100 %
11.04.2016 06:50 3,3 C 3,3 C 3,4 C 90 % 1012,4 hPa 0,0 l/m 0,0 km/h (0 Bft) N-NW 337 0 min 0,000 mm 7 W/m 1,8 C 3,3 C 3,2 km/h (1 Bft) 99 %
11.04.2016 07:00 3,4 C 3,3 C 3,4 C 90 % 1012,3 hPa 0,0 l/m 0,0 km/h (0 Bft) N-NW 337 0 min 0,000 mm 14 W/m 1,9 C 3,4 C 1,6 km/h (1 Bft) 100 %
11.04.2016 07:10 3,4 C 3,3 C 3,5 C 90 % 1012,1 hPa 0,0 l/m 1,6 km/h (1 Bft) N-NO 22 0 min 0,000 mm 18 W/m 1,9 C 3,4 C 4,8 km/h (1 Bft) 100 %
11.04.2016 07:20 3,6 C 3,5 C 3,6 C 90 % 1012,3 hPa 0,0 l/m 0,0 km/h (0 Bft) N 0 0 min 0,000 mm 23 W/m 2,1 C 3,6 C 0,0 km/h (0 Bft) 100 %
11.04.2016 07:30 3,6 C 3,5 C 3,6 C 90 % 1012,4 hPa 0,0 l/m 0,0 km/h (0 Bft) N 0 0 min 0,000 mm 30 W/m 2,1 C 3,6 C 0,0 km/h (0 Bft) 100 %
11.04.2016 07:40 3,6 C 3,6 C 3,6 C 90 % 1012,3 hPa 0,0 l/m 0,0 km/h (0 Bft) N-NO 22 0 min 0,000 mm 33 W/m 2,1 C 3,6 C 11,3 km/h (2 Bft) 100 %
11.04.2016 07:50 3,7 C 3,6 C 3,7 C 90 % 1012,3 hPa 0,0 l/m 0,0 km/h (0 Bft) N 0 0 min 0,000 mm 54 W/m 2,2 C 3,7 C 0,0 km/h (0 Bft) 89 %
11.04.2016 08:00 3,9 C 3,7 C 3,9 C 90 % 1012,3 hPa 0,0 l/m 0,0 km/h (0 Bft) N-NO 22 0 min 0,025 mm 54 W/m 2,4 C 3,9 C 4,8 km/h (1 Bft) 100 %
11.04.2016 08:10 4,2 C 3,9 C 4,2 C 90 % 1012,6 hPa 0,0 l/m 0,0 km/h (0 Bft) N-NO 22 0 min 0,000 mm 49 W/m 2,7 C 4,2 C 4,8 km/h (1 Bft) 100 %
11.04.2016 08:20 4,5 C 4,2 C 4,5 C 90 % 1012,5 hPa 0,0 l/m 0,0 km/h (0 Bft) N-NO 22 0 min 0,000 mm 65 W/m 3,0 C 4,5 C 3,2 km/h (1 Bft) 100 %
11.04.2016 08:30 4,9 C 4,5 C 4,9 C 89 % 1012,6 hPa 0,0 l/m 0,0 km/h (0 Bft) N-NO 22 10 min 0,000 mm 199 W/m 3,2 C 4,9 C 6,4 km/h (2 Bft) 100 %
11.04.2016 08:40 5,5 C 4,9 C 5,5 C 88 % 1012,5 hPa 0,0 l/m 0,0 km/h (0 Bft) N-NO 22 10 min 0,000 mm 244 W/m 3,7 C 5,5 C 8,0 km/h (2 Bft) 100 %
11.04.2016 08:50 6,2 C 5,5 C 6,2 C 86 % 1012,5 hPa 0,0 l/m 0,0 km/h (0 Bft) N-NO 22 10 min 0,000 mm 276 W/m 4,0 C 6,2 C 6,4 km/h (2 Bft) 100 %
11.04.2016 09:00 6,8 C 6,2 C 6,8 C 84 % 1012,6 hPa 0,0 l/m 1,6 km/h (1 Bft) NO 45 10 min 0,076 mm 302 W/m 4,3 C 6,8 C 8,0 km/h (2 Bft) 100 %
11.04.2016 09:10 7,3 C 6,8 C 7,3 C 82 % 1012,6 hPa 0,0 l/m 1,6 km/h (1 Bft) NO 45 10 min 0,000 mm 338 W/m 4,4 C 7,3 C 8,0 km/h (2 Bft) 100 %
11.04.2016 09:20 7,8 C 7,3 C 7,8 C 80 % 1012,6 hPa 0,0 l/m 0,0 km/h (0 Bft) NO 45 10 min 0,000 mm 357 W/m 4,6 C 7,8 C 8,0 km/h (2 Bft) 100 %
11.04.2016 09:30 8,2 C 7,8 C 8,2 C 80 % 1012,7 hPa 0,0 l/m 0,0 km/h (0 Bft) NO 45 10 min 0,000 mm 383 W/m 5,0 C 8,2 C 9,7 km/h (2 Bft) 100 %
11.04.2016 09:40 8,7 C 7,8 C 8,7 C 78 % 1012,6 hPa 0,0 l/m 1,7 km/h (1 Bft) NO 36 10 min 0,000 mm 415 W/m 5,1 C 8,7 C 8,0 km/h (2 Bft) 98 %
11.04.2016 09:50 8,9 C 8,7 C 8,9 C 77 % 1012,6 hPa 0,0 l/m 1,0 km/h (0 Bft) NO 37 10 min 0,000 mm 439 W/m 5,1 C 8,9 C 14,5 km/h (3 Bft) 97 %
11.04.2016 10:00 9,3 C 8,9 C 9,3 C 76 % 1012,6 hPa 0,0 l/m 1,0 km/h (0 Bft) NO 38 10 min 0,000 mm 464 W/m 5,3 C 9,3 C 8,0 km/h (2 Bft) 97 %
11.04.2016 10:10 9,5 C 9,3 C 9,5 C 76 % 1012,6 hPa 0,0 l/m 2,0 km/h (1 Bft) N-NO 32 10 min 0,155 mm 485 W/m 5,5 C 9,5 C 8,0 km/h (2 Bft) 97 %
11.04.2016 10:20 9,8 C 9,5 C 9,8 C 75 % 1012,4 hPa 0,0 l/m 1,7 km/h (1 Bft) N-NO 26 10 min 0,000 mm 513 W/m 5,6 C 9,8 C 9,7 km/h (2 Bft) 97 %
11.04.2016 10:30 10,1 C 9,8 C 10,1 C 74 % 1012,5 hPa 0,0 l/m 0,7 km/h (0 Bft) NO 44 10 min 0,000 mm 540 W/m 5,7 C 10,1 C 9,7 km/h (2 Bft) 89 %
11.04.2016 10:40 10,4 C 10,1 C 10,4 C 73 % 1012,4 hPa 0,0 l/m 1,0 km/h (0 Bft) NO 41 10 min 0,000 mm 563 W/m 5,8 C 10,4 C 8,0 km/h (2 Bft) 97 %
11.04.2016 10:50 10,8 C 10,4 C 10,8 C 72 % 1012,4 hPa 0,0 l/m 2,0 km/h (1 Bft) NO 40 10 min 0,000 mm 584 W/m 6,0 C 10,8 C 12,9 km/h (3 Bft) 98 %
11.04.2016 11:00 11,0 C 10,8 C 11,0 C 74 % 1012,4 hPa 0,0 l/m 1,8 km/h (1 Bft) NO 38 10 min 0,254 mm 606 W/m 6,5 C 11,0 C 11,3 km/h (2 Bft) 97 %
11.04.2016 11:10 11,3 C 11,0 C 11,3 C 72 % 1012,4 hPa 0,0 l/m 0,3 km/h (0 Bft) O-NO 57 10 min 0,000 mm 624 W/m 6,4 C 11,3 C 6,4 km/h (2 Bft) 97 %
11.04.2016 11:20 11,5 C 11,3 C 11,5 C 71 % 1012,3 hPa 0,0 l/m 0,3 km/h (0 Bft) N-NO 13 10 min 0,000 mm 640 W/m 6,4 C 11,5 C 6,4 km/h (2 Bft) 97 %
11.04.2016 11:30 11,8 C 11,5 C 11,8 C 70 % 1012,2 hPa 0,0 l/m 0,3 km/h (0 Bft) N-NO 30 10 min 0,000 mm 652 W/m 6,5 C 11,8 C 4,8 km/h (1 Bft) 98 %
11.04.2016 11:40 12,1 C 11,8 C 12,1 C 71 % 1012,2 hPa 0,0 l/m 1,1 km/h (1 Bft) SW 215 10 min 0,000 mm 668 W/m 7,0 C 12,1 C 9,7 km/h (2 Bft) 97 %
11.04.2016 11:50 12,6 C 12,1 C 12,6 C 70 % 1012,1 hPa 0,0 l/m 0,9 km/h (0 Bft) NO 50 10 min 0,000 mm 682 W/m 7,3 C 12,6 C 8,0 km/h (2 Bft) 97 %
11.04.2016 12:00 12,7 C 12,6 C 12,7 C 69 % 1012,1 hPa 0,0 l/m 0,8 km/h (0 Bft) N-NO 30 10 min 0,330 mm 696 W/m 7,2 C 12,7 C 8,0 km/h (2 Bft) 98 %
11.04.2016 12:10 13,2 C 12,7 C 13,2 C 69 % 1012,1 hPa 0,0 l/m 0,3 km/h (0 Bft) N 9 10 min 0,000 mm 701 W/m 7,6 C 13,2 C 9,7 km/h (2 Bft) 97 %
11.04.2016 12:20 13,4 C 13,2 C 13,5 C 67 % 1011,9 hPa 0,0 l/m 0,9 km/h (0 Bft) O-NO 72 10 min 0,000 mm 703 W/m 7,4 C 13,4 C 8,0 km/h (2 Bft) 98 %
11.04.2016 12:30 13,7 C 13,4 C 13,7 C 68 % 1011,7 hPa 0,0 l/m 0,7 km/h (0 Bft) N-NW 333 10 min 0,000 mm 710 W/m 7,9 C 13,7 C 9,7 km/h (2 Bft) 97 %
11.04.2016 12:40 14,1 C 13,7 C 14,1 C 70 % 1011,6 hPa 0,0 l/m 0,3 km/h (0 Bft) N-NW 346 10 min 0,000 mm 717 W/m 8,7 C 14,1 C 6,4 km/h (2 Bft) 98 %
11.04.2016 12:50 14,2 C 14,1 C 14,2 C 66 % 1011,4 hPa 0,0 l/m 0,8 km/h (0 Bft) N-NO 26 10 min 0,000 mm 728 W/m 7,9 C 14,2 C 9,7 km/h (2 Bft) 97 %
11.04.2016 13:00 14,3 C 14,2 C 14,3 C 66 % 1011,3 hPa 0,0 l/m 2,0 km/h (1 Bft) N 5 10 min 0,355 mm 728 W/m 8,0 C 14,3 C 11,3 km/h (2 Bft) 98 %
11.04.2016 13:10 14,4 C 14,3 C 14,4 C 66 % 1011,2 hPa 0,0 l/m 2,9 km/h (1 Bft) NO 46 10 min 0,000 mm 735 W/m 8,1 C 14,4 C 14,5 km/h (3 Bft) 97 %
11.04.2016 13:20 14,6 C 14,4 C 14,6 C 63 % 1011,2 hPa 0,0 l/m 2,7 km/h (1 Bft) NO 51 10 min 0,000 mm 731 W/m 7,6 C 14,6 C 14,5 km/h (3 Bft) 97 %
11.04.2016 13:30 14,8 C 14,6 C 14,8 C 63 % 1011,1 hPa 0,0 l/m 1,6 km/h (1 Bft) N-NO 17 10 min 0,000 mm 728 W/m 7,8 C 14,8 C 9,7 km/h (2 Bft) 97 %
11.04.2016 13:40 15,1 C 14,8 C 15,1 C 62 % 1010,9 hPa 0,0 l/m 1,0 km/h (0 Bft) NO 40 10 min 0,000 mm 712 W/m 7,9 C 15,1 C 8,0 km/h (2 Bft) 97 %
11.04.2016 13:50 15,2 C 15,1 C 15,2 C 61 % 1011,0 hPa 0,0 l/m 1,8 km/h (1 Bft) NO 37 10 min 0,000 mm 738 W/m 7,7 C 15,2 C 8,0 km/h (2 Bft) 98 %
11.04.2016 14:00 15,3 C 15,2 C 15,3 C 61 % 1010,9 hPa 0,0 l/m 2,1 km/h (1 Bft) N-NO 17 10 min 0,381 mm 728 W/m 7,8 C 15,3 C 22,5 km/h (4 Bft) 97 %
11.04.2016 14:10 15,7 C 15,3 C 15,7 C 62 % 1010,7 hPa 0,0 l/m 1,2 km/h (1 Bft) O-NO 67 10 min 0,000 mm 728 W/m 8,4 C 15,7 C 9,7 km/h (2 Bft) 97 %
11.04.2016 14:20 15,8 C 15,7 C 15,8 C 60 % 1010,7 hPa 0,0 l/m 2,8 km/h (1 Bft) N-NO 28 10 min 0,000 mm 707 W/m 8,1 C 15,8 C 17,7 km/h (3 Bft) 98 %
11.04.2016 14:30 15,9 C 15,8 C 15,9 C 60 % 1010,6 hPa 0,0 l/m 2,2 km/h (1 Bft) N-NO 31 10 min 0,000 mm 619 W/m 8,1 C 15,9 C 11,3 km/h (2 Bft) 97 %
11.04.2016 14:40 15,9 C 15,9 C 15,9 C 59 % 1010,6 hPa 0,0 l/m 2,0 km/h (1 Bft) N-NO 17 10 min 0,000 mm 684 W/m 7,9 C 15,9 C 9,7 km/h (2 Bft) 98 %
11.04.2016 14:50 15,9 C 15,9 C 15,9 C 59 % 1010,4 hPa 0,0 l/m 1,2 km/h (1 Bft) N-NO 22 10 min 0,000 mm 687 W/m 7,9 C 15,9 C 11,3 km/h (2 Bft) 97 %
11.04.2016 15:00 16,2 C 15,9 C 16,2 C 60 % 1010,5 hPa 0,0 l/m 1,6 km/h (1 Bft) NO 47 10 min 0,381 mm 534 W/m 8,4 C 16,2 C 11,3 km/h (2 Bft) 97 %
11.04.2016 15:10 16,3 C 16,2 C 16,3 C 58 % 1010,2 hPa 0,0 l/m 1,4 km/h (1 Bft) O-NO 72 10 min 0,000 mm 503 W/m 8,0 C 16,3 C 12,9 km/h (3 Bft) 97 %
11.04.2016 15:20 16,5 C 16,3 C 16,5 C 58 % 1010,1 hPa 0,0 l/m 1,0 km/h (0 Bft) N 11 10 min 0,000 mm 585 W/m 8,2 C 16,5 C 8,0 km/h (2 Bft) 97 %
11.04.2016 15:30 16,8 C 16,5 C 16,8 C 57 % 1010,0 hPa 0,0 l/m 1,2 km/h (1 Bft) N-NO 12 10 min 0,000 mm 501 W/m 8,2 C 16,8 C 17,7 km/h (3 Bft) 98 %
11.04.2016 15:40 16,8 C 16,8 C 16,8 C 59 % 1009,9 hPa 0,0 l/m 1,2 km/h (1 Bft) N-NW 336 10 min 0,000 mm 160 W/m 8,7 C 16,8 C 19,3 km/h (3 Bft) 97 %
11.04.2016 15:50 16,7 C 16,7 C 17,0 C 57 % 1009,7 hPa 0,0 l/m 1,7 km/h (1 Bft) NO 42 0 min 0,000 mm 107 W/m 8,1 C 16,7 C 8,0 km/h (2 Bft) 98 %
11.04.2016 16:00 16,6 C 16,6 C 16,7 C 57 % 1009,5 hPa 0,0 l/m 1,5 km/h (1 Bft) N-NO 24 0 min 0,204 mm 98 W/m 8,0 C 16,6 C 9,7 km/h (2 Bft) 97 %
11.04.2016 16:10 16,6 C 16,6 C 16,6 C 58 % 1009,4 hPa 0,0 l/m 0,8 km/h (0 Bft) N-NO 32 0 min 0,000 mm 91 W/m 8,3 C 16,6 C 8,0 km/h (2 Bft) 97 %
11.04.2016 16:20 16,6 C 16,6 C 16,6 C 58 % 1009,4 hPa 0,0 l/m 1,8 km/h (1 Bft) N-NO 27 0 min 0,000 mm 98 W/m 8,3 C 16,6 C 11,3 km/h (2 Bft) 98 %
11.04.2016 16:30 16,7 C 16,6 C 16,7 C 57 % 1009,3 hPa 0,0 l/m 1,9 km/h (1 Bft) NO 40 0 min 0,000 mm 86 W/m 8,1 C 16,7 C 11,3 km/h (2 Bft) 97 %
11.04.2016 16:40 16,5 C 16,5 C 16,7 C 56 % 1009,4 hPa 0,0 l/m 1,0 km/h (0 Bft) NO 46 0 min 0,000 mm 65 W/m 7,7 C 16,5 C 8,0 km/h (2 Bft) 97 %
11.04.2016 16:50 16,1 C 16,1 C 16,5 C 58 % 1009,4 hPa 0,0 l/m 0,6 km/h (0 Bft) NO 35 0 min 0,000 mm 74 W/m 7,8 C 16,1 C 8,0 km/h (2 Bft) 97 %
11.04.2016 17:00 16,0 C 16,0 C 16,1 C 58 % 1009,4 hPa 0,0 l/m 0,3 km/h (0 Bft) NO 50 0 min 0,050 mm 109 W/m 7,7 C 16,0 C 6,4 km/h (2 Bft) 98 %
11.04.2016 17:10 16,2 C 16,0 C 16,2 C 58 % 1009,4 hPa 0,0 l/m 0,9 km/h (0 Bft) N-NO 32 0 min 0,000 mm 98 W/m 7,9 C 16,2 C 6,4 km/h (2 Bft) 97 %
11.04.2016 17:20 16,2 C 16,2 C 16,2 C 57 % 1009,4 hPa 0,0 l/m 0,7 km/h (0 Bft) N-NO 32 0 min 0,000 mm 62 W/m 7,7 C 16,2 C 6,4 km/h (2 Bft) 97 %
11.04.2016 17:30 16,2 C 16,2 C 16,2 C 59 % 1009,4 hPa 0,0 l/m 0,4 km/h (0 Bft) N 5 0 min 0,000 mm 72 W/m 8,2 C 16,2 C 8,0 km/h (2 Bft) 98 %
11.04.2016 17:40 16,3 C 16,2 C 16,3 C 60 % 1009,5 hPa 0,0 l/m 0,3 km/h (0 Bft) N-NO 30 0 min 0,000 mm 79 W/m 8,5 C 16,3 C 4,8 km/h (1 Bft) 97 %
11.04.2016 17:50 16,2 C 16,2 C 16,3 C 57 % 1009,4 hPa 0,0 l/m 0,2 km/h (0 Bft) NO 36 0 min 0,000 mm 49 W/m 7,7 C 16,2 C 4,8 km/h (1 Bft) 97 %
11.04.2016 18:00 16,1 C 16,1 C 16,2 C 57 % 1009,4 hPa 0,0 l/m 0,5 km/h (0 Bft) NO 44 0 min 0,051 mm 39 W/m 7,6 C 16,1 C 8,0 km/h (2 Bft) 97 %
11.04.2016 18:10 15,9 C 15,9 C 16,1 C 58 % 1009,4 hPa 0,0 l/m 0,2 km/h (0 Bft) NO 43 0 min 0,000 mm 33 W/m 7,6 C 15,9 C 3,2 km/h (1 Bft) 98 %
11.04.2016 18:20 15,8 C 15,8 C 15,9 C 59 % 1009,4 hPa 0,0 l/m 0,3 km/h (0 Bft) NO 49 0 min 0,000 mm 32 W/m 7,8 C 15,8 C 6,4 km/h (2 Bft) 97 %
11.04.2016 18:30 15,7 C 15,7 C 15,8 C 58 % 1009,5 hPa 0,0 l/m 0,4 km/h (0 Bft) NO 45 0 min 0,000 mm 28 W/m 7,5 C 15,7 C 4,8 km/h (1 Bft) 98 %
11.04.2016 18:40 15,5 C 15,5 C 15,7 C 60 % 1009,3 hPa 0,0 l/m 1,6 km/h (1 Bft) NO 44 0 min 0,000 mm 25 W/m 7,8 C 15,5 C 6,4 km/h (2 Bft) 97 %
11.04.2016 18:50 15,2 C 15,2 C 15,5 C 62 % 1009,3 hPa 0,0 l/m 2,2 km/h (1 Bft) NO 39 0 min 0,000 mm 21 W/m 8,0 C 15,2 C 8,0 km/h (2 Bft) 97 %
11.04.2016 19:00 15,1 C 15,1 C 15,2 C 61 % 1009,3 hPa 0,0 l/m 0,7 km/h (0 Bft) NO 36 0 min 0,026 mm 18 W/m 7,6 C 15,1 C 6,4 km/h (2 Bft) 98 %
11.04.2016 19:10 14,8 C 14,8 C 15,1 C 61 % 1009,3 hPa 0,0 l/m 0,9 km/h (0 Bft) NO 36 0 min 0,000 mm 14 W/m 7,4 C 14,8 C 6,4 km/h (2 Bft) 97 %
11.04.2016 19:20 14,6 C 14,6 C 14,8 C 61 % 1009,4 hPa 0,0 l/m 0,6 km/h (0 Bft) O-NO 59 0 min 0,000 mm 12 W/m 7,2 C 14,6 C 4,8 km/h (1 Bft) 98 %
11.04.2016 19:30 14,3 C 14,3 C 14,6 C 62 % 1009,4 hPa 0,0 l/m 0,3 km/h (0 Bft) NO 44 0 min 0,000 mm 7 W/m 7,1 C 14,3 C 4,8 km/h (1 Bft) 97 %
11.04.2016 19:40 14,1 C 14,1 C 14,3 C 63 % 1009,4 hPa 0,0 l/m 0,0 km/h (0 Bft) NO 39 0 min 0,000 mm 0 W/m 7,2 C 14,1 C 1,6 km/h (1 Bft) 97 %
11.04.2016 19:50 13,8 C 13,8 C 14,1 C 64 % 1009,8 hPa 0,0 l/m 0,2 km/h (0 Bft) NO 48 0 min 0,000 mm 0 W/m 7,1 C 13,8 C 3,2 km/h (1 Bft) 98 %
11.04.2016 20:00 13,4 C 13,4 C 13,8 C 65 % 1009,9 hPa 0,0 l/m 0,0 km/h (0 Bft) NO 48 0 min 0,000 mm 0 W/m 7,0 C 13,4 C 1,6 km/h (1 Bft) 97 %
11.04.2016 20:10 13,1 C 13,1 C 13,4 C 65 % 1010,0 hPa 0,0 l/m 0,0 km/h (0 Bft) NO 47 0 min 0,000 mm 0 W/m 6,7 C 13,1 C 0,0 km/h (0 Bft) 98 %
11.04.2016 20:20 12,6 C 12,6 C 13,1 C 68 % 1010,2 hPa 0,0 l/m 0,0 km/h (0 Bft) NO 47 0 min 0,000 mm 0 W/m 6,9 C 12,6 C 1,6 km/h (1 Bft) 97 %
11.04.2016 20:30 12,2 C 12,2 C 12,6 C 69 % 1010,2 hPa 0,0 l/m 0,0 km/h (0 Bft) NO 47 0 min 0,000 mm 0 W/m 6,7 C 12,2 C 1,6 km/h (1 Bft) 98 %
11.04.2016 20:40 11,6 C 11,6 C 12,2 C 72 % 1010,2 hPa 0,0 l/m 0,0 km/h (0 Bft) NO 46 0 min 0,000 mm 0 W/m 6,7 C 11,6 C 1,6 km/h (1 Bft) 97 %
11.04.2016 20:50 11,3 C 11,3 C 11,6 C 73 % 1010,4 hPa 0,0 l/m 0,0 km/h (0 Bft) NO 46 0 min 0,000 mm 0 W/m 6,6 C 11,3 C 1,6 km/h (1 Bft) 97 %
11.04.2016 21:00 11,1 C 11,1 C 11,3 C 73 % 1010,3 hPa 0,0 l/m 0,0 km/h (0 Bft) NO 40 0 min 0,000 mm 0 W/m 6,4 C 11,1 C 1,6 km/h (1 Bft) 98 %
11.04.2016 21:10 11,0 C 11,0 C 11,1 C 73 % 1010,4 hPa 0,0 l/m 0,0 km/h (0 Bft) NO 45 0 min 0,000 mm 0 W/m 6,4 C 11,0 C 1,6 km/h (1 Bft) 100 %
11.04.2016 21:20 10,8 C 10,8 C 11,0 C 75 % 1010,6 hPa 0,0 l/m 0,0 km/h (0 Bft) NO 45 0 min 0,000 mm 0 W/m 6,5 C 10,8 C 1,6 km/h (1 Bft) 100 %
11.04.2016 21:30 10,4 C 10,4 C 10,8 C 76 % 1010,5 hPa 0,0 l/m 0,0 km/h (0 Bft) NO 45 0 min 0,000 mm 0 W/m 6,4 C 10,4 C 1,6 km/h (1 Bft) 100 %
11.04.2016 21:40 10,2 C 10,2 C 10,4 C 77 % 1010,7 hPa 0,0 l/m 0,0 km/h (0 Bft) N 0 0 min 0,000 mm 0 W/m 6,4 C 10,2 C 0,0 km/h (0 Bft) 100 %
11.04.2016 21:50 9,9 C 9,9 C 10,2 C 77 % 1010,6 hPa 0,0 l/m 0,0 km/h (0 Bft) NO 45 0 min 0,000 mm 0 W/m 6,1 C 9,9 C 1,6 km/h (1 Bft) 100 %
11.04.2016 22:00 9,7 C 9,7 C 9,9 C 78 % 1010,5 hPa 0,0 l/m 0,0 km/h (0 Bft) NO 45 0 min 0,025 mm 0 W/m 6,1 C 9,7 C 1,6 km/h (1 Bft) 98 %
11.04.2016 22:10 9,6 C 9,6 C 9,7 C 79 % 1010,4 hPa 0,0 l/m 0,0 km/h (0 Bft) NO 45 0 min 0,000 mm 0 W/m 6,1 C 9,6 C 1,6 km/h (1 Bft) 100 %
11.04.2016 22:20 9,5 C 9,5 C 9,6 C 80 % 1010,6 hPa 0,0 l/m 0,0 km/h (0 Bft) NO 45 0 min 0,000 mm 0 W/m 6,2 C 9,5 C 1,6 km/h (1 Bft) 100 %
11.04.2016 22:30 9,6 C 9,5 C 9,6 C 79 % 1010,6 hPa 0,0 l/m 0,0 km/h (0 Bft) NO 45 0 min 0,000 mm 0 W/m 6,1 C 9,6 C 6,4 km/h (2 Bft) 100 %
11.04.2016 22:40 9,6 C 9,6 C 9,6 C 80 % 1010,6 hPa 0,0 l/m 0,0 km/h (0 Bft) NO 45 0 min 0,000 mm 0 W/m 6,3 C 9,6 C 1,6 km/h (1 Bft) 100 %
11.04.2016 22:50 9,5 C 9,5 C 9,6 C 79 % 1010,5 hPa 0,0 l/m 0,0 km/h (0 Bft) NO 45 0 min 0,000 mm 0 W/m 6,0 C 9,5 C 1,6 km/h (1 Bft) 100 %
11.04.2016 23:00 9,4 C 9,4 C 9,5 C 79 % 1010,6 hPa 0,0 l/m 0,0 km/h (0 Bft) N 0 0 min 0,025 mm 0 W/m 5,9 C 9,4 C 0,0 km/h (0 Bft) 91 %
11.04.2016 23:10 9,3 C 9,3 C 9,4 C 79 % 1010,6 hPa 0,0 l/m 0,0 km/h (0 Bft) N 0 0 min 0,000 mm 0 W/m 5,8 C 9,3 C 0,0 km/h (0 Bft) 100 %
11.04.2016 23:20 9,2 C 9,2 C 9,3 C 80 % 1010,7 hPa 0,0 l/m 0,0 km/h (0 Bft) N 0 0 min 0,000 mm 0 W/m 5,9 C 9,2 C 0,0 km/h (0 Bft) 100 %
11.04.2016 23:30 9,0 C 9,0 C 9,2 C 79 % 1010,4 hPa 0,0 l/m 1,6 km/h (1 Bft) NO 45 0 min 0,000 mm 0 W/m 5,6 C 9,0 C 6,4 km/h (2 Bft) 100 %
11.04.2016 23:40 9,0 C 9,0 C 9,1 C 79 % 1010,3 hPa 0,0 l/m 1,6 km/h (1 Bft) NO 45 0 min 0,000 mm 0 W/m 5,6 C 9,0 C 8,0 km/h (2 Bft) 100 %
11.04.2016 23:50 9,0 C 9,0 C 9,0 C 79 % 1010,2 hPa 0,0 l/m 0,0 km/h (0 Bft) NO 45 0 min 0,000 mm 0 W/m 5,6 C 9,0 C 8,0 km/h (2 Bft) 100 %
_ Min-Zeit 06:50 06:50 06:50 16:40 16:30 - 01:30 - - - - - 06:50 06:50 03:20 00:10
Minimum _ 3,3 C 3,3 C 3,4 C 56 % 1009,3 hPa - 0,0 km/h (0 Bft) - - - - - 1,8 C 3,3 C 0,0 km/h (0 Bft) 80 %
_ Max-Zeit 15:50 15:40 15:50 06:20 09:30 00:00 00:20 - - 08:30 14:00 13:50 15:40 15:30 14:00 00:20
Maximum _ 17,0 C 16,8 C 17,0 C 90 % 1012,7 hPa 0,0 l/m 3,2 km/h
NO (1 Bft)
- - 10 min 0,381 mm 738 W/m 8,7 C 16,8 C 22,5 km/h
N (4 Bft)
100 %
Durchschnitt _ 10,3 C 10,2 C 10,4 C 74 % 1011,2 hPa #0,0 l/m 0,7 km/h (0 Bft) NO - #7:20 h #2,438 mm 347 W/m 5,6 C 10,3 C 6,3 km/h (2 Bft) 98 %
PRIVATE WETTERSTATION BILLIGHEIM-ALLFELD - www.neckar-odenwald-wetter.de - Holger Sonntag